createdAt,value
2023-04-17T00:02:15.954Z,79.30
2023-04-17T00:04:45.498Z,79.30
2023-04-17T00:07:13.757Z,79.30
2023-04-17T00:09:41.811Z,79.40
2023-04-17T00:12:09.872Z,79.30
2023-04-17T00:14:39.310Z,79.30
2023-04-17T00:17:07.527Z,79.30
2023-04-17T00:19:35.626Z,79.20
2023-04-17T00:22:03.664Z,79.30
2023-04-17T00:24:31.739Z,79.30
2023-04-17T00:26:59.802Z,79.30
2023-04-17T00:29:27.928Z,79.30
2023-04-17T00:31:57.370Z,79.30
2023-04-17T00:34:25.550Z,79.40
2023-04-17T00:36:53.674Z,79.30
2023-04-17T00:39:21.721Z,79.30
2023-04-17T00:41:49.868Z,79.30
2023-04-17T00:44:17.994Z,79.30
2023-04-17T00:46:46.153Z,79.30
2023-04-17T00:49:15.702Z,79.30
2023-04-17T00:51:43.800Z,79.50
2023-04-17T00:54:12.470Z,79.50
2023-04-17T00:56:43.070Z,79.40
2023-04-17T00:59:13.649Z,79.30
2023-04-17T01:01:42.028Z,79.30
2023-04-17T01:04:11.207Z,79.30
2023-04-17T01:06:41.909Z,79.20
2023-04-17T01:09:10.590Z,79.30
2023-04-17T01:11:39.531Z,79.20
2023-04-17T01:14:07.598Z,79.30
2023-04-17T01:16:40.210Z,80.10
2023-04-17T01:19:09.961Z,79.40
2023-04-17T01:21:38.260Z,79.50
2023-04-17T01:24:08.468Z,79.50
2023-04-17T01:26:37.217Z,79.60
2023-04-17T01:29:05.294Z,79.40
2023-04-17T01:31:33.404Z,79.30
2023-04-17T01:34:01.598Z,79.30
2023-04-17T01:36:29.752Z,79.30
2023-04-17T01:38:57.845Z,79.20
2023-04-17T01:41:27.265Z,79.80
2023-04-17T01:43:55.321Z,79.00
2023-04-17T01:46:23.456Z,78.90
2023-04-17T01:48:51.687Z,78.90
2023-04-17T01:51:19.906Z,78.90
2023-04-17T01:53:47.987Z,79.10
2023-04-17T01:56:16.131Z,79.10
2023-04-17T01:58:45.570Z,79.10
2023-04-17T02:01:13.802Z,79.10
2023-04-17T02:03:42.257Z,79.20
2023-04-17T02:06:11.606Z,79.40
2023-04-17T02:08:39.789Z,79.60
2023-04-17T02:11:07.871Z,79.60
2023-04-17T02:13:35.936Z,79.50
2023-04-17T02:16:05.818Z,79.40
2023-04-17T02:18:33.981Z,79.20
2023-04-17T02:21:02.048Z,79.00
2023-04-17T02:23:30.599Z,79.90
2023-04-17T02:25:58.780Z,79.40
2023-04-17T02:28:26.911Z,80.20
2023-04-17T02:30:55.183Z,79.60
2023-04-17T02:33:24.681Z,79.70
2023-04-17T02:35:52.829Z,79.90
2023-04-17T02:38:20.941Z,79.70
2023-04-17T02:40:49.104Z,79.70
2023-04-17T02:43:17.298Z,79.80
2023-04-17T02:45:45.446Z,79.70
2023-04-17T02:48:13.753Z,79.50
2023-04-17T02:50:43.286Z,79.20
2023-04-17T02:53:11.895Z,79.10
2023-04-17T02:55:40.001Z,79.10
2023-04-17T02:58:08.045Z,79.00
2023-04-17T03:00:36.132Z,79.20
2023-04-17T03:03:05.020Z,79.20
2023-04-17T03:05:33.182Z,79.40
2023-04-17T03:08:02.734Z,79.40
2023-04-17T03:10:30.909Z,79.20
2023-04-17T03:12:58.999Z,79.10
2023-04-17T03:15:27.113Z,79.00
2023-04-17T03:17:55.444Z,78.80
2023-04-17T03:20:23.595Z,78.80
2023-04-17T03:22:51.685Z,79.00
2023-04-17T03:25:21.273Z,79.20
2023-04-17T03:27:49.391Z,79.60
2023-04-17T03:30:17.452Z,79.90
2023-04-17T03:32:45.732Z,80.30
2023-04-17T03:35:13.863Z,80.50
2023-04-17T03:37:41.998Z,81.20
2023-04-17T03:40:10.860Z,80.50
2023-04-17T03:42:40.646Z,80.60
2023-04-17T03:45:10.440Z,81.50
2023-04-17T03:47:38.596Z,80.90
2023-04-17T03:50:08.000Z,80.70
2023-04-17T03:52:36.179Z,80.80
2023-04-17T03:55:04.556Z,80.90
2023-04-17T03:57:32.723Z,81.00
2023-04-17T04:00:02.226Z,81.00
2023-04-17T04:02:30.342Z,81.00
2023-04-17T04:04:58.560Z,80.90
2023-04-17T04:07:26.679Z,80.90
2023-04-17T04:09:55.781Z,80.90
2023-04-17T04:12:24.041Z,80.90
2023-04-17T04:14:52.084Z,81.00
2023-04-17T04:17:21.664Z,81.10
2023-04-17T04:19:49.770Z,81.30
2023-04-17T04:22:18.621Z,81.20
2023-04-17T04:24:47.312Z,81.10
2023-04-17T04:27:18.114Z,81.00
2023-04-17T04:29:48.920Z,80.90
2023-04-17T04:32:17.135Z,81.00
2023-04-17T04:34:46.878Z,81.00
2023-04-17T04:37:16.022Z,81.10
2023-04-17T04:39:44.375Z,80.90
2023-04-17T04:42:12.446Z,80.80
2023-04-17T04:44:40.632Z,80.90
2023-04-17T04:47:08.794Z,80.90
2023-04-17T04:49:36.948Z,81.00
2023-04-17T04:52:06.675Z,81.00
2023-04-17T04:54:34.764Z,81.10
2023-04-17T04:57:02.840Z,81.20
2023-04-17T04:59:30.956Z,81.20
2023-04-17T05:01:59.120Z,81.30
2023-04-17T05:04:28.204Z,81.40
2023-04-17T05:06:57.776Z,81.60
2023-04-17T05:09:27.383Z,81.60
2023-04-17T05:11:55.512Z,81.70
2023-04-17T05:14:23.594Z,81.60
2023-04-17T05:16:51.843Z,81.60
2023-04-17T05:19:20.266Z,81.70
2023-04-17T05:21:48.377Z,81.70
2023-04-17T05:24:16.449Z,81.60
2023-04-17T05:26:45.901Z,81.60
2023-04-17T05:29:14.087Z,81.80
2023-04-17T05:31:42.386Z,81.70
2023-04-17T05:34:10.570Z,81.70
2023-04-17T05:36:38.622Z,81.60
2023-04-17T05:39:06.762Z,81.60
2023-04-17T05:41:34.829Z,81.60
2023-04-17T05:44:04.269Z,81.50
2023-04-17T05:46:32.608Z,81.60
2023-04-17T05:49:00.682Z,81.40
2023-04-17T05:51:29.066Z,81.50
2023-04-17T05:53:57.467Z,81.40
2023-04-17T05:56:25.542Z,82.00
2023-04-17T05:58:53.616Z,81.30
2023-04-17T06:01:23.594Z,81.30
2023-04-17T06:03:51.844Z,81.30
2023-04-17T06:06:20.086Z,81.20
2023-04-17T06:08:48.165Z,81.20
2023-04-17T06:11:17.217Z,81.20
2023-04-17T06:13:45.485Z,81.10
2023-04-17T06:16:13.612Z,81.00
2023-04-17T06:18:43.069Z,81.10
2023-04-17T06:21:11.336Z,81.20
2023-04-17T06:23:39.378Z,81.10
2023-04-17T06:26:07.515Z,80.90
2023-04-17T06:28:35.571Z,80.80
2023-04-17T06:31:03.918Z,80.70
2023-04-17T06:33:32.033Z,80.60
2023-04-17T06:36:01.564Z,80.60
2023-04-17T06:38:29.657Z,80.80
2023-04-17T06:40:57.806Z,80.80
2023-04-17T06:43:26.102Z,80.80
2023-04-17T06:45:54.464Z,80.60
2023-04-17T06:48:22.576Z,80.50
2023-04-17T06:50:50.801Z,80.30
2023-04-17T06:53:21.555Z,80.30
2023-04-17T06:55:49.660Z,80.30
2023-04-17T06:58:17.755Z,80.30
2023-04-17T07:00:45.828Z,80.20
2023-04-17T07:03:15.041Z,80.40
2023-04-17T07:05:45.210Z,80.50
2023-04-17T07:08:13.536Z,80.70
2023-04-17T07:10:43.016Z,80.60
2023-04-17T07:13:11.096Z,80.80
2023-04-17T07:15:39.223Z,80.80
2023-04-17T07:18:07.677Z,80.80
2023-04-17T07:20:36.034Z,80.80
2023-04-17T07:23:04.126Z,80.70
2023-04-17T07:25:32.188Z,80.40
2023-04-17T07:28:03.282Z,80.40
2023-04-17T07:30:32.748Z,80.20
2023-04-17T07:33:01.798Z,80.10
2023-04-17T07:35:30.128Z,80.20
2023-04-17T07:38:01.122Z,80.10
2023-04-17T07:40:29.571Z,79.90
2023-04-17T07:42:57.666Z,79.30
2023-04-17T07:45:28.539Z,79.10
2023-04-17T07:47:56.811Z,79.00
2023-04-17T07:50:25.273Z,78.70
2023-04-17T07:52:53.390Z,78.40
2023-04-17T07:55:21.601Z,78.30
2023-04-17T07:57:51.569Z,78.30
2023-04-17T08:00:21.500Z,78.00
2023-04-17T08:02:51.390Z,77.90
2023-04-17T08:05:19.772Z,78.00
2023-04-17T08:07:47.877Z,77.70
2023-04-17T08:10:16.129Z,77.60
2023-04-17T08:12:44.513Z,77.40
2023-04-17T08:15:13.221Z,77.10
2023-04-17T08:17:41.438Z,76.50
2023-04-17T08:20:11.716Z,76.50
2023-04-17T08:22:41.012Z,76.30
2023-04-17T08:25:10.309Z,75.90
2023-04-17T08:27:39.822Z,76.30
2023-04-17T08:30:12.587Z,75.40
2023-04-17T08:32:43.104Z,74.80
2023-04-17T08:35:14.012Z,75.00
2023-04-17T08:37:44.308Z,74.90
2023-04-17T08:40:13.302Z,74.60
2023-04-17T08:42:42.968Z,75.10
2023-04-17T08:45:12.859Z,75.00
2023-04-17T08:47:41.766Z,75.30
2023-04-17T08:50:13.055Z,75.40
2023-04-17T08:52:42.575Z,74.60
2023-04-17T08:55:12.009Z,73.20
2023-04-17T08:57:55.876Z,72.80
2023-04-17T09:00:28.479Z,71.90
2023-04-17T09:02:58.868Z,71.50
2023-04-17T09:05:33.306Z,72.00
2023-04-17T09:08:10.652Z,72.50
2023-04-17T09:10:39.642Z,71.70
2023-04-17T09:13:08.531Z,71.80
2023-04-17T09:15:37.913Z,72.50
2023-04-17T09:18:06.148Z,71.70
2023-04-17T09:20:50.552Z,71.70
2023-04-17T09:23:18.986Z,70.50
2023-04-17T09:25:47.449Z,70.20
2023-04-17T09:28:16.701Z,70.10
2023-04-17T09:30:45.051Z,69.70
2023-04-17T09:33:13.114Z,70.00
2023-04-17T09:35:42.623Z,69.60
2023-04-17T09:38:10.718Z,70.30
2023-04-17T09:40:40.627Z,69.40
2023-04-17T09:43:10.409Z,68.40
2023-04-17T09:45:42.462Z,68.20
2023-04-17T09:48:12.829Z,67.90
2023-04-17T09:50:42.656Z,67.80
2023-04-17T09:53:11.446Z,67.40
2023-04-17T09:55:43.619Z,66.90
2023-04-17T09:58:12.308Z,65.70
2023-04-17T10:00:42.952Z,66.60
2023-04-17T10:03:11.461Z,66.30
2023-04-17T10:05:39.903Z,67.10
2023-04-17T10:08:09.584Z,67.40
2023-04-17T10:10:37.736Z,66.30
2023-04-17T10:13:09.240Z,65.40
2023-04-17T10:15:38.090Z,64.40
2023-04-17T10:18:23.599Z,65.80
2023-04-17T10:20:53.374Z,65.30
2023-04-17T10:23:31.978Z,65.70
2023-04-17T10:26:42.506Z,65.30
2023-04-17T10:29:12.640Z,65.50
2023-04-17T10:32:25.816Z,66.00
2023-04-17T10:34:54.847Z,66.10
2023-04-17T10:37:25.390Z,66.60
2023-04-17T10:39:57.632Z,66.50
2023-04-17T10:42:27.877Z,65.70
2023-04-17T10:44:59.676Z,65.90
2023-04-17T10:47:33.491Z,65.90
2023-04-17T10:50:04.014Z,65.90
2023-04-17T10:52:44.890Z,66.20
2023-04-17T10:55:17.415Z,65.90
2023-04-17T10:58:00.735Z,66.70
2023-04-17T11:00:34.135Z,67.00
2023-04-17T11:03:02.546Z,67.00
2023-04-17T11:05:32.358Z,67.70
2023-04-17T11:08:01.060Z,67.60
2023-04-17T11:10:30.752Z,67.90
2023-04-17T11:12:58.835Z,67.60
2023-04-17T11:15:28.791Z,67.50
2023-04-17T11:17:58.089Z,67.10
2023-04-17T11:20:27.269Z,66.90
2023-04-17T11:22:56.080Z,67.10
2023-04-17T11:25:26.226Z,66.50
2023-04-17T11:27:58.601Z,66.40
2023-04-17T11:30:31.618Z,66.40
2023-04-17T11:33:01.822Z,66.60
2023-04-17T11:35:33.125Z,66.80
2023-04-17T11:38:14.186Z,67.20
2023-04-17T11:40:46.665Z,66.10
2023-04-17T11:43:16.431Z,66.00
2023-04-17T11:45:46.971Z,66.60
2023-04-17T11:48:16.131Z,66.50
2023-04-17T11:50:45.235Z,66.60
2023-04-17T11:53:17.303Z,66.20
2023-04-17T11:55:45.989Z,65.70
2023-04-17T11:58:15.791Z,65.90
2023-04-17T12:00:43.922Z,65.20
2023-04-17T12:03:39.085Z,64.00
2023-04-17T12:06:07.713Z,60.90
2023-04-17T12:08:45.039Z,62.50
2023-04-17T12:11:26.135Z,62.00
2023-04-17T12:13:56.367Z,60.50
2023-04-17T12:16:25.825Z,62.10
2023-04-17T12:18:54.605Z,62.40
2023-04-17T12:21:24.044Z,62.30
2023-04-17T12:23:52.617Z,62.50
2023-04-17T12:26:20.849Z,62.80
2023-04-17T12:28:48.937Z,62.80
2023-04-17T12:31:18.484Z,62.30
2023-04-17T12:33:47.282Z,62.10
2023-04-17T12:36:15.491Z,63.20
2023-04-17T12:38:43.984Z,62.30
2023-04-17T12:41:12.095Z,62.30
2023-04-17T12:43:40.401Z,61.90
2023-04-17T12:46:08.677Z,62.30
2023-04-17T12:48:38.254Z,62.00
2023-04-17T12:51:06.366Z,62.00
2023-04-17T12:53:34.420Z,62.40
2023-04-17T12:56:02.529Z,62.90
2023-04-17T12:58:31.114Z,63.40
2023-04-17T13:00:59.233Z,63.20
2023-04-17T13:03:27.712Z,63.10
2023-04-17T13:05:57.480Z,62.90
2023-04-17T13:08:25.569Z,62.70
2023-04-17T13:10:53.628Z,63.20
2023-04-17T13:13:21.691Z,63.40
2023-04-17T13:15:49.771Z,63.50
2023-04-17T13:18:17.917Z,62.80
2023-04-17T13:20:45.981Z,62.70
2023-04-17T13:23:15.449Z,62.00
2023-04-17T13:25:43.551Z,59.80
2023-04-17T13:28:11.991Z,59.20
2023-04-17T13:30:40.127Z,58.50
2023-04-17T13:33:08.344Z,57.20
2023-04-17T13:35:36.735Z,57.00
2023-04-17T13:38:05.503Z,56.20
2023-04-17T13:40:36.288Z,55.80
2023-04-17T13:43:06.037Z,53.60
2023-04-17T13:45:34.149Z,53.70
2023-04-17T13:48:02.593Z,54.20
2023-04-17T13:50:30.788Z,54.60
2023-04-17T13:52:58.875Z,55.10
2023-04-17T13:55:26.978Z,54.50
2023-04-17T13:57:56.452Z,54.50
2023-04-17T14:00:25.056Z,53.80
2023-04-17T14:02:53.273Z,53.50
2023-04-17T14:05:21.427Z,53.50
2023-04-17T14:07:49.505Z,53.50
2023-04-17T14:10:17.847Z,53.10
2023-04-17T14:12:46.147Z,52.60
2023-04-17T14:15:16.221Z,53.00
2023-04-17T14:17:44.454Z,52.30
2023-04-17T14:20:15.169Z,52.40
2023-04-17T14:22:43.313Z,52.60
2023-04-17T14:25:11.558Z,52.10
2023-04-17T14:27:39.955Z,52.40
2023-04-17T14:30:09.169Z,53.10
2023-04-17T14:32:39.571Z,53.30
2023-04-17T14:35:08.527Z,52.80
2023-04-17T14:37:36.826Z,52.70
2023-04-17T14:40:05.501Z,52.50
2023-04-17T14:42:40.807Z,52.10
2023-04-17T14:45:19.316Z,52.20
2023-04-17T14:47:48.875Z,52.20
2023-04-17T14:50:17.103Z,52.30
2023-04-17T14:52:45.327Z,51.90
2023-04-17T14:55:13.491Z,51.80
2023-04-17T14:57:41.652Z,52.60
2023-04-17T15:00:10.657Z,53.00
2023-04-17T15:02:39.529Z,53.00
2023-04-17T15:05:10.447Z,53.40
2023-04-17T15:07:38.501Z,53.10
2023-04-17T15:10:07.805Z,53.10
2023-04-17T15:12:35.939Z,53.20
2023-04-17T15:15:04.182Z,52.90
2023-04-17T15:17:32.279Z,53.00
2023-04-17T15:20:01.205Z,51.90
2023-04-17T15:22:30.717Z,52.90
2023-04-17T15:24:58.864Z,52.80
2023-04-17T15:27:27.147Z,52.90
2023-04-17T15:29:55.294Z,53.10
2023-04-17T15:32:23.492Z,53.00
2023-04-17T15:34:51.595Z,52.90
2023-04-17T15:37:19.706Z,52.80
2023-04-17T15:39:49.169Z,52.70
2023-04-17T15:42:17.244Z,52.90
2023-04-17T15:44:45.312Z,52.80
2023-04-17T15:47:14.143Z,53.10
2023-04-17T15:49:43.262Z,53.30
2023-04-17T15:52:11.336Z,53.30
2023-04-17T15:54:39.406Z,53.90
2023-04-17T15:57:08.875Z,53.90
2023-04-17T15:59:36.946Z,54.20
2023-04-17T16:02:05.635Z,54.90
2023-04-17T16:04:33.911Z,55.10
2023-04-17T16:07:02.132Z,55.10
2023-04-17T16:09:30.719Z,55.10
2023-04-17T16:11:59.563Z,54.80
2023-04-17T16:14:28.997Z,54.30
2023-04-17T16:16:59.628Z,52.60
2023-04-17T16:19:27.822Z,52.50
2023-04-17T16:21:56.680Z,51.40
2023-04-17T16:24:25.213Z,51.70
2023-04-17T16:26:55.434Z,52.10
2023-04-17T16:29:23.916Z,51.80
2023-04-17T16:31:54.178Z,51.80
2023-04-17T16:34:22.306Z,51.90
2023-04-17T16:36:50.606Z,51.80
2023-04-17T16:39:18.683Z,52.00
2023-04-17T16:41:46.775Z,52.50
2023-04-17T16:44:14.898Z,52.60
2023-04-17T16:46:59.269Z,52.60
2023-04-17T16:49:32.715Z,52.40
2023-04-17T16:52:00.816Z,51.90
2023-04-17T16:54:28.928Z,52.10
2023-04-17T16:56:57.052Z,51.90
2023-04-17T16:59:25.170Z,52.40
2023-04-17T17:01:53.286Z,52.00
2023-04-17T17:04:21.416Z,52.00
2023-04-17T17:06:53.113Z,52.20
2023-04-17T17:09:21.226Z,52.40
2023-04-17T17:11:49.532Z,52.40
2023-04-17T17:14:17.642Z,52.50
2023-04-17T17:16:45.766Z,52.90
2023-04-17T17:19:14.780Z,52.90
2023-04-17T17:21:43.058Z,52.90
2023-04-17T17:24:12.542Z,53.50
2023-04-17T17:26:40.665Z,53.10
2023-04-17T17:29:08.807Z,53.30
2023-04-17T17:31:36.894Z,53.40
2023-04-17T17:34:17.062Z,53.50
2023-04-17T17:36:53.114Z,53.60
2023-04-17T17:39:22.800Z,53.30
2023-04-17T17:41:50.932Z,53.10
2023-04-17T17:44:19.040Z,53.10
2023-04-17T17:46:47.139Z,53.20
2023-04-17T17:49:15.297Z,53.40
2023-04-17T17:51:44.504Z,53.40
2023-04-17T17:54:13.129Z,53.40
2023-04-17T17:56:43.016Z,53.60
2023-04-17T17:59:11.254Z,53.70
2023-04-17T18:01:40.221Z,53.50
2023-04-17T18:04:08.944Z,53.50
2023-04-17T18:06:37.165Z,53.60
2023-04-17T18:09:05.309Z,53.80
2023-04-17T18:11:33.365Z,53.80
2023-04-17T18:14:02.830Z,53.70
2023-04-17T18:16:32.701Z,53.60
2023-04-17T18:19:03.557Z,53.70
2023-04-17T18:21:31.973Z,53.90
2023-04-17T18:24:00.356Z,53.60
2023-04-17T18:26:28.514Z,53.90
2023-04-17T18:28:56.601Z,53.90
2023-04-17T18:31:26.766Z,54.00
2023-04-17T18:33:54.880Z,54.00
2023-04-17T18:36:22.982Z,54.10
2023-04-17T18:38:51.052Z,54.30
2023-04-17T18:41:19.156Z,54.50
2023-04-17T18:43:47.280Z,54.70
2023-04-17T18:46:15.524Z,54.70
2023-04-17T18:48:45.010Z,54.90
2023-04-17T18:51:14.544Z,54.90
2023-04-17T18:53:42.645Z,55.10
2023-04-17T18:56:10.991Z,55.20
2023-04-17T18:58:40.446Z,55.40
2023-04-17T19:01:10.547Z,55.50
2023-04-17T19:03:39.093Z,55.60
2023-04-17T19:06:08.638Z,55.70
2023-04-17T19:08:36.940Z,55.90
2023-04-17T19:11:05.060Z,55.90
2023-04-17T19:13:33.237Z,56.00
2023-04-17T19:16:01.353Z,56.10
2023-04-17T19:18:29.633Z,56.10
2023-04-17T19:20:57.746Z,56.10
2023-04-17T19:23:27.315Z,56.10
2023-04-17T19:25:56.370Z,56.20
2023-04-17T19:28:25.233Z,56.20
2023-04-17T19:30:53.302Z,56.30
2023-04-17T19:33:22.789Z,56.30
2023-04-17T19:35:52.291Z,56.20
2023-04-17T19:38:20.384Z,56.30
2023-04-17T19:41:11.934Z,56.40
2023-04-17T19:43:39.981Z,56.10
2023-04-17T19:46:08.690Z,56.20
2023-04-17T19:48:37.131Z,56.10
2023-04-17T19:51:06.793Z,56.10
2023-04-17T19:53:36.255Z,56.10
2023-04-17T19:56:08.480Z,56.10
2023-04-17T19:58:37.067Z,56.00
2023-04-17T20:01:05.906Z,56.10
2023-04-17T20:03:35.412Z,56.00
2023-04-17T20:06:03.798Z,55.90
2023-04-17T20:08:31.891Z,55.90
2023-04-17T20:10:59.965Z,56.60
2023-04-17T20:13:29.416Z,56.10
2023-04-17T20:15:57.495Z,56.20
2023-04-17T20:18:25.656Z,56.20
2023-04-17T20:20:53.707Z,56.10
2023-04-17T20:23:21.783Z,56.10
2023-04-17T20:25:50.468Z,56.10
2023-04-17T20:28:18.534Z,56.70
2023-04-17T20:30:48.035Z,56.20
2023-04-17T20:33:16.318Z,56.20
2023-04-17T20:35:44.473Z,56.30
2023-04-17T20:38:12.638Z,56.30
2023-04-17T20:40:40.753Z,56.30
2023-04-17T20:43:09.146Z,56.30
2023-04-17T20:45:37.229Z,56.30
2023-04-17T20:48:06.818Z,56.30
2023-04-17T20:50:34.906Z,56.30
2023-04-17T20:53:03.055Z,56.20
2023-04-17T20:55:31.196Z,56.20
2023-04-17T20:57:59.251Z,56.10
2023-04-17T21:00:27.513Z,56.10
2023-04-17T21:02:58.028Z,56.20
2023-04-17T21:05:27.850Z,56.20
2023-04-17T21:07:57.632Z,56.10
2023-04-17T21:10:25.967Z,56.20
2023-04-17T21:12:54.050Z,56.20
2023-04-17T21:15:22.342Z,56.20
2023-04-17T21:17:50.499Z,56.20
2023-04-17T21:20:18.602Z,56.40
2023-04-17T21:22:48.026Z,56.50
2023-04-17T21:25:16.110Z,56.70
2023-04-17T21:27:44.453Z,56.80
2023-04-17T21:30:12.872Z,56.90
2023-04-17T21:32:42.174Z,57.10
2023-04-17T21:35:11.365Z,57.20
2023-04-17T21:37:39.458Z,57.30
2023-04-17T21:40:10.695Z,57.40
2023-04-17T21:42:38.785Z,57.50
2023-04-17T21:45:08.104Z,57.60
2023-04-17T21:47:36.213Z,57.70
2023-04-17T21:50:04.404Z,57.80
2023-04-17T21:52:32.665Z,57.80
2023-04-17T21:55:05.107Z,57.90
2023-04-17T21:57:35.112Z,58.00
2023-04-17T22:00:04.364Z,58.30
2023-04-17T22:02:34.733Z,58.30
2023-04-17T22:05:02.897Z,58.50
2023-04-17T22:07:35.899Z,58.60
2023-04-17T22:10:10.811Z,58.80
2023-04-17T22:12:40.336Z,59.00
2023-04-17T22:15:09.746Z,59.20
2023-04-17T22:17:37.900Z,59.30
2023-04-17T22:20:06.922Z,59.40
2023-04-17T22:22:34.985Z,59.40
2023-04-17T22:25:03.077Z,59.60
2023-04-17T22:27:31.274Z,59.80
2023-04-17T22:30:00.841Z,59.80
2023-04-17T22:32:29.220Z,60.00
2023-04-17T22:34:57.305Z,60.10
2023-04-17T22:37:25.533Z,60.20
2023-04-17T22:39:53.640Z,60.20
2023-04-17T22:42:21.866Z,60.40
2023-04-17T22:44:49.953Z,60.40
2023-04-17T22:47:19.495Z,60.50
2023-04-17T22:49:47.557Z,60.60
2023-04-17T22:52:15.647Z,60.60
2023-04-17T22:54:43.778Z,60.80
2023-04-17T22:57:11.981Z,60.90
2023-04-17T22:59:41.313Z,60.80
2023-04-17T23:02:09.430Z,61.10
2023-04-17T23:04:39.024Z,61.30
2023-04-17T23:07:07.133Z,61.50
2023-04-17T23:09:35.239Z,61.60
2023-04-17T23:12:03.377Z,61.80
2023-04-17T23:14:31.494Z,62.00
2023-04-17T23:16:59.586Z,62.10
2023-04-17T23:19:27.709Z,62.20
2023-04-17T23:21:59.358Z,62.30
2023-04-17T23:24:27.697Z,62.50
2023-04-17T23:26:56.185Z,62.50
2023-04-17T23:29:24.273Z,62.80
2023-04-17T23:31:52.425Z,62.90
2023-04-17T23:34:20.575Z,63.00
2023-04-17T23:36:48.977Z,63.20
2023-04-17T23:39:18.672Z,63.30
2023-04-17T23:41:46.723Z,63.70
2023-04-17T23:44:14.974Z,63.60
2023-04-17T23:46:43.384Z,63.60
2023-04-17T23:49:11.467Z,63.70
2023-04-17T23:51:39.550Z,63.80
2023-04-17T23:54:08.511Z,63.90
2023-04-17T23:56:37.975Z,64.00
2023-04-17T23:59:06.092Z,64.20
